Time;durP1;ratioP1;P1;durP2;ratioP2;P2;SDS_P1;SDS_P2;PMS_P1;PMS_P2;Temp;Humidity;BMP_temperature;BMP_pressure;BME280_temperature;BME280_humidity;BME280_pressure;Samples;Min_cycle;Max_cycle;Signal;HPM_P1;HPM_P2
2023/08/02 00:00:27;;;;;;;2.05;0.93;;;;;;;;;;5085691;28;20033;-78
2023/08/02 00:02:53;;;;;;;2.17;0.98;;;;;;;;;;5085816;28;20055;-78
2023/08/02 00:05:18;;;;;;;2.10;1.10;;;;;;;;;;5084970;28;20027;-78
2023/08/02 00:07:44;;;;;;;2.55;0.98;;;;;;;;;;5085624;28;20044;-79
2023/08/02 00:10:09;;;;;;;2.47;1.20;;;;;;;;;;5082759;28;20028;-79
2023/08/02 00:12:34;;;;;;;1.35;0.90;;;;;;;;;;5085893;28;20024;-78
2023/08/02 00:15:00;;;;;;;5.00;1.03;;;;;;;;;;5083952;28;20019;-79
2023/08/02 00:17:25;;;;;;;1.63;0.90;;;;;;;;;;5084221;28;20261;-78
2023/08/02 00:19:50;;;;;;;3.40;1.03;;;;;;;;;;5083691;28;20031;-79
2023/08/02 00:22:18;;;;;;;3.67;1.30;;;;;;;;;;5084755;28;20748;-77
2023/08/02 00:24:43;;;;;;;2.70;1.05;;;;;;;;;;5085359;28;20054;-78
2023/08/02 00:27:09;;;;;;;1.60;1.17;;;;;;;;;;5085288;28;20025;-78
2023/08/02 00:29:34;;;;;;;1.50;1.05;;;;;;;;;;5085570;28;20257;-78
2023/08/02 00:31:59;;;;;;;1.83;1.02;;;;;;;;;;5082813;28;20063;-78
2023/08/02 00:34:26;;;;;;;1.37;1.20;;;;;;;;;;5083292;28;20095;-77
2023/08/02 00:36:51;;;;;;;1.95;1.10;;;;;;;;;;5085359;28;20333;-78
2023/08/02 00:39:18;;;;;;;4.55;1.13;;;;;;;;;;5085103;28;20020;-78
2023/08/02 00:41:43;;;;;;;1.33;0.80;;;;;;;;;;5086388;28;20032;-78
2023/08/02 00:44:08;;;;;;;2.10;1.05;;;;;;;;;;5087692;28;20029;-78
2023/08/02 00:46:34;;;;;;;1.30;1.00;;;;;;;;;;5087868;28;20115;-78
2023/08/02 00:48:59;;;;;;;3.42;1.00;;;;;;;;;;5087818;28;20036;-78
2023/08/02 00:51:24;;;;;;;1.98;1.10;;;;;;;;;;5086591;28;20062;-79
2023/08/02 00:53:51;;;;;;;3.80;1.00;;;;;;;;;;5086579;28;20027;-78
2023/08/02 00:56:17;;;;;;;2.78;1.10;;;;;;;;;;5086242;28;20055;-79
2023/08/02 00:58:43;;;;;;;3.13;1.00;;;;;;;;;;5087677;28;20024;-79
2023/08/02 01:01:08;;;;;;;2.50;1.10;;;;;;;;;;5087450;28;20020;-78
2023/08/02 01:03:39;;;;;;;5.25;0.93;;;;;;;;;;5087006;28;20052;-78
2023/08/02 01:06:22;;;;;;;1.42;1.00;;;;;;;;;;5088095;28;20040;-79
2023/08/02 01:08:57;;;;;;;1.20;0.82;;;;;;;;;;5087374;28;20047;-77
2023/08/02 01:11:29;;;;;;;1.73;1.10;;;;;;;;;;5083697;28;20063;-79
2023/08/02 01:13:56;;;;;;;1.17;0.98;;;;;;;;;;5083887;28;20111;-78
2023/08/02 01:16:23;;;;;;;3.25;1.00;;;;;;;;;;5082161;28;20084;-76
2023/08/02 01:18:49;;;;;;;1.25;0.93;;;;;;;;;;5083382;28;20089;-78
2023/08/02 01:21:14;;;;;;;2.67;0.90;;;;;;;;;;5085261;28;20044;-78
2023/08/02 01:23:39;;;;;;;2.08;0.98;;;;;;;;;;5086557;28;20029;-77
2023/08/02 01:26:05;;;;;;;3.65;1.13;;;;;;;;;;5086544;28;20040;-78
2023/08/02 01:28:35;;;;;;;1.58;0.90;;;;;;;;;;5085636;28;20029;-78
2023/08/02 01:31:01;;;;;;;1.50;0.80;;;;;;;;;;5084584;28;20028;-78
2023/08/02 01:33:27;;;;;;;2.50;1.00;;;;;;;;;;5086316;28;20108;-78
2023/08/02 01:35:52;;;;;;;1.52;0.90;;;;;;;;;;5083587;28;20455;-77
2023/08/02 01:38:17;;;;;;;3.38;1.05;;;;;;;;;;5083876;28;20020;-77
2023/08/02 01:40:43;;;;;;;1.23;0.90;;;;;;;;;;5082060;28;20024;-78
2023/08/02 01:43:08;;;;;;;1.63;1.10;;;;;;;;;;5076185;28;20111;-77
2023/08/02 01:45:34;;;;;;;1.85;0.90;;;;;;;;;;5073700;28;20111;-76
2023/08/02 01:48:01;;;;;;;2.72;1.00;;;;;;;;;;5081981;28;20028;-77
2023/08/02 01:50:26;;;;;;;4.32;1.30;;;;;;;;;;5083301;28;20166;-78
2023/08/02 01:52:51;;;;;;;4.63;1.00;;;;;;;;;;5082589;28;20016;-78
2023/08/02 01:55:17;;;;;;;2.00;1.27;;;;;;;;;;5083359;28;20500;-78
2023/08/02 01:57:43;;;;;;;3.22;1.42;;;;;;;;;;5082724;28;20803;-78
2023/08/02 02:00:09;;;;;;;2.03;1.00;;;;;;;;;;5085742;28;20024;-78
2023/08/02 02:02:34;;;;;;;5.78;1.17;;;;;;;;;;5085256;28;20036;-78
2023/08/02 02:04:59;;;;;;;1.67;0.98;;;;;;;;;;5084002;28;20032;-78
2023/08/02 02:07:25;;;;;;;1.25;0.95;;;;;;;;;;5084432;28;20016;-79
2023/08/02 02:09:50;;;;;;;3.22;1.10;;;;;;;;;;5085605;28;20024;-78
2023/08/02 02:12:15;;;;;;;1.95;1.00;;;;;;;;;;5086645;28;20108;-77
2023/08/02 02:14:40;;;;;;;2.57;1.07;;;;;;;;;;5089142;28;20028;-79
2023/08/02 02:17:06;;;;;;;2.60;1.13;;;;;;;;;;5091790;28;20285;-79
2023/08/02 02:19:31;;;;;;;4.38;1.10;;;;;;;;;;5090061;28;20249;-79
2023/08/02 02:21:56;;;;;;;2.72;1.00;;;;;;;;;;5089699;28;20028;-79
2023/08/02 02:24:22;;;;;;;5.18;1.10;;;;;;;;;;5090351;28;20074;-78
2023/08/02 02:26:47;;;;;;;1.85;1.02;;;;;;;;;;5089211;28;20088;-78
2023/08/02 02:29:12;;;;;;;1.37;1.00;;;;;;;;;;5088220;28;20050;-79
2023/08/02 02:31:37;;;;;;;1.73;1.20;;;;;;;;;;5087441;28;20261;-78
2023/08/02 02:34:03;;;;;;;1.73;1.10;;;;;;;;;;5089495;28;20027;-77
2023/08/02 02:36:28;;;;;;;2.90;1.10;;;;;;;;;;5089143;28;20017;-78
2023/08/02 02:38:53;;;;;;;3.22;1.02;;;;;;;;;;5089211;28;20541;-78
2023/08/02 02:41:19;;;;;;;2.50;1.20;;;;;;;;;;5087426;28;20031;-79
2023/08/02 02:43:44;;;;;;;2.30;1.35;;;;;;;;;;5089347;28;20261;-78
2023/08/02 02:46:09;;;;;;;3.85;1.30;;;;;;;;;;5088651;28;20031;-78
2023/08/02 02:48:34;;;;;;;1.53;0.90;;;;;;;;;;5087197;28;20028;-79
2023/08/02 02:50:59;;;;;;;1.57;1.07;;;;;;;;;;5087564;28;20261;-78
2023/08/02 02:53:25;;;;;;;1.63;0.80;;;;;;;;;;5087309;28;20269;-78
2023/08/02 02:55:51;;;;;;;4.80;1.20;;;;;;;;;;5087930;28;20268;-79
2023/08/02 02:58:17;;;;;;;7.35;1.30;;;;;;;;;;5087542;28;20025;-78
2023/08/02 03:00:42;;;;;;;2.33;1.08;;;;;;;;;;5087603;28;20025;-78
2023/08/02 03:03:07;;;;;;;2.70;1.10;;;;;;;;;;5086617;28;20024;-79
2023/08/02 03:05:33;;;;;;;2.35;1.10;;;;;;;;;;5088921;28;20329;-78
2023/08/02 03:07:58;;;;;;;1.70;1.02;;;;;;;;;;5088508;28;20028;-78
2023/08/02 03:10:24;;;;;;;4.78;1.10;;;;;;;;;;5083928;28;20326;-78
2023/08/02 03:12:49;;;;;;;1.83;0.95;;;;;;;;;;5082361;28;20024;-78
2023/08/02 03:15:14;;;;;;;1.70;1.00;;;;;;;;;;5084083;28;20032;-78
2023/08/02 03:17:40;;;;;;;2.45;1.10;;;;;;;;;;5088081;28;20325;-79
2023/08/02 03:20:06;;;;;;;1.93;1.03;;;;;;;;;;5086793;28;20398;-79
2023/08/02 03:22:32;;;;;;;1.75;0.90;;;;;;;;;;5089214;28;20265;-79
2023/08/02 03:24:58;;;;;;;3.80;1.27;;;;;;;;;;5087141;28;20123;-79
2023/08/02 03:27:23;;;;;;;1.55;1.00;;;;;;;;;;5088215;28;20017;-79
2023/08/02 03:29:48;;;;;;;3.97;1.17;;;;;;;;;;5088375;28;20016;-79
2023/08/02 03:32:13;;;;;;;2.35;1.02;;;;;;;;;;5089370;28;20024;-79
2023/08/02 03:34:39;;;;;;;3.58;1.27;;;;;;;;;;5089026;28;20016;-79
2023/08/02 03:37:04;;;;;;;3.93;1.00;;;;;;;;;;5088100;28;20017;-78
2023/08/02 03:39:30;;;;;;;3.67;1.23;;;;;;;;;;5088339;28;20257;-78
2023/08/02 03:41:55;;;;;;;3.00;1.00;;;;;;;;;;5089013;28;20084;-79
2023/08/02 03:44:21;;;;;;;2.63;1.20;;;;;;;;;;5089002;28;20021;-78
2023/08/02 03:46:46;;;;;;;1.05;0.80;;;;;;;;;;5088983;28;20036;-78
2023/08/02 03:49:11;;;;;;;2.22;0.90;;;;;;;;;;5088184;28;20048;-79
2023/08/02 03:51:37;;;;;;;4.00;1.10;;;;;;;;;;5088201;28;20024;-79
2023/08/02 03:54:03;;;;;;;3.08;1.10;;;;;;;;;;5088606;28;20718;-79
2023/08/02 03:56:29;;;;;;;2.00;0.90;;;;;;;;;;5088307;28;20028;-79
2023/08/02 03:58:54;;;;;;;1.25;0.90;;;;;;;;;;5087236;28;20088;-78
2023/08/02 04:01:19;;;;;;;3.78;1.02;;;;;;;;;;5087867;28;20029;-78
2023/08/02 04:03:45;;;;;;;2.53;1.17;;;;;;;;;;5087722;28;20388;-78
2023/08/02 04:06:10;;;;;;;2.30;1.00;;;;;;;;;;5087237;28;20052;-78
2023/08/02 04:08:35;;;;;;;2.17;1.00;;;;;;;;;;5083831;28;20295;-78
2023/08/02 04:11:04;;;;;;;3.67;1.00;;;;;;;;;;5082346;28;20539;-78
2023/08/02 04:13:29;;;;;;;2.40;0.90;;;;;;;;;;5081909;28;20487;-77
2023/08/02 04:15:54;;;;;;;1.63;0.98;;;;;;;;;;5079458;28;20142;-77
2023/08/02 04:18:20;;;;;;;1.63;0.90;;;;;;;;;;5077700;28;20058;-76
2023/08/02 04:20:45;;;;;;;2.90;0.88;;;;;;;;;;5085335;28;20276;-78
2023/08/02 04:23:10;;;;;;;1.35;1.00;;;;;;;;;;5084788;28;20479;-79
2023/08/02 04:25:35;;;;;;;3.53;1.10;;;;;;;;;;5085045;28;20054;-78
2023/08/02 04:28:01;;;;;;;3.90;1.15;;;;;;;;;;5084125;28;20336;-78
2023/08/02 04:30:26;;;;;;;2.00;0.93;;;;;;;;;;5085734;28;20403;-78
2023/08/02 04:32:53;;;;;;;2.50;0.85;;;;;;;;;;5084103;28;20027;-80
2023/08/02 04:35:18;;;;;;;1.63;0.90;;;;;;;;;;5083188;28;20023;-79
2023/08/02 04:37:45;;;;;;;3.53;1.00;;;;;;;;;;5086783;28;20040;-80
2023/08/02 04:40:10;;;;;;;4.63;1.05;;;;;;;;;;5086733;28;20288;-79
2023/08/02 04:42:38;;;;;;;1.80;1.10;;;;;;;;;;5087589;28;20020;-79
2023/08/02 04:45:03;;;;;;;3.03;1.08;;;;;;;;;;5087005;28;20047;-79
2023/08/02 04:47:28;;;;;;;2.60;0.93;;;;;;;;;;5088000;28;20032;-79
2023/08/02 04:49:57;;;;;;;3.13;1.20;;;;;;;;;;5086369;28;20082;-79
2023/08/02 04:52:22;;;;;;;2.40;0.80;;;;;;;;;;5087214;28;20054;-78
2023/08/02 04:54:47;;;;;;;1.52;0.98;;;;;;;;;;5084734;28;20020;-78
2023/08/02 04:57:12;;;;;;;2.95;1.30;;;;;;;;;;5083128;28;20027;-79
2023/08/02 04:59:38;;;;;;;3.17;0.93;;;;;;;;;;5085755;28;20107;-79
2023/08/02 05:02:03;;;;;;;2.63;1.27;;;;;;;;;;5085590;28;20257;-79
2023/08/02 05:04:28;;;;;;;4.38;1.10;;;;;;;;;;5085463;28;20698;-78
2023/08/02 05:06:54;;;;;;;2.50;0.90;;;;;;;;;;5086677;28;20025;-78
2023/08/02 05:09:20;;;;;;;4.07;1.10;;;;;;;;;;5086938;28;20025;-78
2023/08/02 05:11:45;;;;;;;5.97;1.17;;;;;;;;;;5085920;28;20448;-79
2023/08/02 05:14:12;;;;;;;4.63;1.20;;;;;;;;;;5084437;28;20326;-79
2023/08/02 05:16:37;;;;;;;2.60;1.00;;;;;;;;;;5085962;28;20268;-78
2023/08/02 05:19:03;;;;;;;3.03;1.15;;;;;;;;;;5086189;28;20499;-78
2023/08/02 05:21:28;;;;;;;3.55;1.33;;;;;;;;;;5084759;28;20021;-79
2023/08/02 05:23:53;;;;;;;2.50;1.10;;;;;;;;;;5086985;28;20020;-78
2023/08/02 05:26:19;;;;;;;5.05;0.95;;;;;;;;;;5087043;28;20040;-78
2023/08/02 05:28:44;;;;;;;3.33;1.00;;;;;;;;;;5087032;28;20025;-78
2023/08/02 05:31:13;;;;;;;3.05;1.13;;;;;;;;;;5086327;28;20028;-79
2023/08/02 05:33:39;;;;;;;1.70;1.00;;;;;;;;;;5087027;28;20036;-79
2023/08/02 05:36:05;;;;;;;5.75;1.08;;;;;;;;;;5081522;28;20031;-79
2023/08/02 05:38:30;;;;;;;2.60;0.90;;;;;;;;;;5078099;28;20029;-78
2023/08/02 05:41:00;;;;;;;3.40;1.17;;;;;;;;;;5076458;28;20404;-77
2023/08/02 05:43:25;;;;;;;4.68;1.10;;;;;;;;;;5075993;28;20020;-78
2023/08/02 05:45:53;;;;;;;3.30;1.10;;;;;;;;;;5081217;28;20032;-80
2023/08/02 05:48:19;;;;;;;4.35;1.63;;;;;;;;;;5082725;28;20044;-81
2023/08/02 05:50:44;;;;;;;3.00;1.20;;;;;;;;;;5087189;28;20024;-79
2023/08/02 05:53:09;;;;;;;3.38;1.10;;;;;;;;;;5086593;28;20084;-80
2023/08/02 05:55:35;;;;;;;6.63;1.97;;;;;;;;;;5084592;28;20533;-80
2023/08/02 05:58:00;;;;;;;2.37;1.13;;;;;;;;;;5085249;28;20346;-80
2023/08/02 06:00:25;;;;;;;2.83;1.20;;;;;;;;;;5084116;28;20256;-78
2023/08/02 06:02:50;;;;;;;2.90;1.08;;;;;;;;;;5085161;28;20039;-78
2023/08/02 06:05:16;;;;;;;6.18;1.00;;;;;;;;;;5085137;28;20594;-78
2023/08/02 06:07:41;;;;;;;2.45;0.90;;;;;;;;;;5083281;28;20080;-77
2023/08/02 06:10:07;;;;;;;2.27;0.80;;;;;;;;;;5084136;28;20040;-79
2023/08/02 06:12:32;;;;;;;2.35;0.98;;;;;;;;;;5081799;28;20733;-80
2023/08/02 06:14:57;;;;;;;2.10;0.90;;;;;;;;;;5084711;28;20053;-81
2023/08/02 06:17:22;;;;;;;2.30;1.03;;;;;;;;;;5087207;28;20344;-80
2023/08/02 06:19:48;;;;;;;2.65;1.20;;;;;;;;;;5085213;28;20257;-79
2023/08/02 06:22:36;;;;;;;2.30;1.10;;;;;;;;;;5086162;28;20024;-78
2023/08/02 06:25:01;;;;;;;2.33;1.05;;;;;;;;;;5085679;28;20666;-80
2023/08/02 06:27:26;;;;;;;3.10;1.20;;;;;;;;;;5085400;28;20032;-79
2023/08/02 06:29:52;;;;;;;3.75;1.20;;;;;;;;;;5084902;28;20280;-78
2023/08/02 06:32:17;;;;;;;2.45;1.10;;;;;;;;;;5087304;28;20050;-78
2023/08/02 06:34:42;;;;;;;3.00;1.20;;;;;;;;;;5088372;28;20035;-78
2023/08/02 06:37:10;;;;;;;3.25;1.08;;;;;;;;;;5087436;28;20036;-79
2023/08/02 06:39:35;;;;;;;3.15;1.23;;;;;;;;;;5087179;28;20024;-79
2023/08/02 06:42:03;;;;;;;2.27;1.40;;;;;;;;;;5086922;28;20024;-80
2023/08/02 06:44:28;;;;;;;2.78;1.30;;;;;;;;;;5086753;28;20588;-78
2023/08/02 06:46:56;;;;;;;2.53;1.20;;;;;;;;;;5086134;28;20017;-79
2023/08/02 06:49:21;;;;;;;3.10;0.98;;;;;;;;;;5087547;28;20493;-78
2023/08/02 06:51:47;;;;;;;2.63;1.23;;;;;;;;;;5087692;28;20037;-79
2023/08/02 06:54:12;;;;;;;3.13;1.08;;;;;;;;;;5089430;28;20030;-79
2023/08/02 06:56:40;;;;;;;2.08;1.23;;;;;;;;;;5088133;28;20024;-79
2023/08/02 06:59:05;;;;;;;7.03;1.23;;;;;;;;;;5087016;28;20025;-78
2023/08/02 07:01:33;;;;;;;5.40;1.20;;;;;;;;;;5087400;28;20055;-79
2023/08/02 07:03:58;;;;;;;2.78;1.40;;;;;;;;;;5087871;28;20671;-80
2023/08/02 07:06:23;;;;;;;5.83;1.77;;;;;;;;;;5087691;28;20024;-80
2023/08/02 07:08:51;;;;;;;2.50;1.30;;;;;;;;;;5087251;28;20740;-80
2023/08/02 07:11:17;;;;;;;2.83;1.15;;;;;;;;;;5087060;28;20268;-79
2023/08/02 07:13:44;;;;;;;1.63;1.10;;;;;;;;;;5086271;28;20020;-79
2023/08/02 07:16:10;;;;;;;2.78;1.20;;;;;;;;;;5083143;28;20024;-79
2023/08/02 07:18:35;;;;;;;2.50;1.20;;;;;;;;;;5085827;28;20021;-80
2023/08/02 07:21:08;;;;;;;4.25;1.35;;;;;;;;;;5087264;28;20486;-80
2023/08/02 07:23:34;;;;;;;1.83;1.20;;;;;;;;;;5088591;28;20020;-79
2023/08/02 07:26:00;;;;;;;3.33;1.10;;;;;;;;;;5088224;28;20044;-80
2023/08/02 07:28:25;;;;;;;3.58;1.27;;;;;;;;;;5088226;28;20024;-80
2023/08/02 07:30:50;;;;;;;1.65;1.10;;;;;;;;;;5085536;28;20108;-80
2023/08/02 07:33:16;;;;;;;3.73;1.40;;;;;;;;;;5086882;28;20400;-81
2023/08/02 07:35:41;;;;;;;2.53;1.30;;;;;;;;;;5087313;28;20303;-79
2023/08/02 07:38:06;;;;;;;3.22;1.60;;;;;;;;;;5087162;28;20031;-80
2023/08/02 07:40:32;;;;;;;3.60;1.50;;;;;;;;;;5086745;28;20040;-78
2023/08/02 07:42:57;;;;;;;2.70;1.50;;;;;;;;;;5085402;28;20024;-77
2023/08/02 07:45:22;;;;;;;2.08;1.33;;;;;;;;;;5087431;28;20464;-79
2023/08/02 07:47:48;;;;;;;2.97;1.20;;;;;;;;;;5085101;28;20035;-81
2023/08/02 07:50:13;;;;;;;3.37;1.30;;;;;;;;;;5086104;28;20571;-78
2023/08/02 07:52:38;;;;;;;3.30;1.38;;;;;;;;;;5087047;28;20257;-80
2023/08/02 07:55:04;;;;;;;5.80;1.15;;;;;;;;;;5084686;28;20024;-79
2023/08/02 07:57:33;;;;;;;2.70;1.25;;;;;;;;;;5086512;28;20036;-81
2023/08/02 07:59:59;;;;;;;4.75;1.35;;;;;;;;;;5085103;28;20394;-80
2023/08/02 08:02:27;;;;;;;2.25;1.30;;;;;;;;;;5086258;28;20051;-79
2023/08/02 08:04:54;;;;;;;2.35;1.30;;;;;;;;;;5086330;28;20031;-78
2023/08/02 08:07:19;;;;;;;1.50;1.20;;;;;;;;;;5086181;28;20031;-80
2023/08/02 08:09:44;;;;;;;3.45;1.38;;;;;;;;;;5081463;28;20060;-78
2023/08/02 08:12:10;;;;;;;3.13;1.30;;;;;;;;;;5080427;28;20088;-78
2023/08/02 08:14:36;;;;;;;2.08;1.33;;;;;;;;;;5080686;28;20771;-80
2023/08/02 08:17:01;;;;;;;3.05;1.30;;;;;;;;;;5079766;28;20475;-79
2023/08/02 08:19:27;;;;;;;2.83;1.20;;;;;;;;;;5084655;28;20031;-77
2023/08/02 08:21:53;;;;;;;1.75;1.08;;;;;;;;;;5085965;28;20020;-78
2023/08/02 08:24:19;;;;;;;1.77;1.20;;;;;;;;;;5084579;28;20051;-79
2023/08/02 08:26:44;;;;;;;2.08;1.10;;;;;;;;;;5084318;28;20017;-77
2023/08/02 08:29:09;;;;;;;4.30;1.20;;;;;;;;;;5084518;28;20066;-78
2023/08/02 08:31:35;;;;;;;1.83;1.30;;;;;;;;;;5081808;28;20029;-78
2023/08/02 08:34:01;;;;;;;13.13;2.38;;;;;;;;;;5082415;28;20269;-78
2023/08/02 08:36:26;;;;;;;3.28;1.33;;;;;;;;;;5082724;28;20166;-80
2023/08/02 08:38:52;;;;;;;1.77;1.20;;;;;;;;;;5083974;28;20020;-80
2023/08/02 08:41:18;;;;;;;6.40;1.58;;;;;;;;;;5084280;28;20064;-80
2023/08/02 08:43:43;;;;;;;3.30;1.45;;;;;;;;;;5083851;28;20029;-80
2023/08/02 08:46:11;;;;;;;2.35;1.27;;;;;;;;;;5083824;28;20468;-79
2023/08/02 08:48:38;;;;;;;2.83;1.35;;;;;;;;;;5084126;28;20032;-79
2023/08/02 08:51:04;;;;;;;2.15;1.02;;;;;;;;;;5083788;28;20099;-79
2023/08/02 08:53:34;;;;;;;1.92;0.93;;;;;;;;;;5081741;28;20056;-79
2023/08/02 08:56:01;;;;;;;2.60;1.15;;;;;;;;;;5082090;28;20021;-79
2023/08/02 08:58:26;;;;;;;3.70;1.30;;;;;;;;;;5085067;28;20032;-80
2023/08/02 09:00:54;;;;;;;2.25;1.20;;;;;;;;;;5083045;28;20096;-80
2023/08/02 09:03:20;;;;;;;2.58;1.33;;;;;;;;;;5082787;28;20028;-80
2023/08/02 09:05:45;;;;;;;2.20;1.17;;;;;;;;;;5082991;28;20035;-80
2023/08/02 09:08:11;;;;;;;2.95;1.30;;;;;;;;;;5082235;28;20021;-80
2023/08/02 09:10:37;;;;;;;2.35;1.30;;;;;;;;;;5081970;28;20036;-79
2023/08/02 09:13:03;;;;;;;3.90;1.05;;;;;;;;;;5080080;28;20016;-81
2023/08/02 09:15:28;;;;;;;3.03;1.30;;;;;;;;;;5081543;28;20040;-80
2023/08/02 09:17:54;;;;;;;3.50;1.52;;;;;;;;;;5084415;28;20050;-79
2023/08/02 09:20:25;;;;;;;4.00;1.45;;;;;;;;;;5084171;28;20153;-79
2023/08/02 09:22:51;;;;;;;2.67;1.20;;;;;;;;;;5082351;28;20142;-80
2023/08/02 09:25:29;;;;;;;3.40;1.30;;;;;;;;;;5082011;28;20025;-80
2023/08/02 09:27:58;;;;;;;3.38;1.50;;;;;;;;;;5084119;28;20032;-79
2023/08/02 09:30:29;;;;;;;2.67;1.52;;;;;;;;;;5082511;28;20146;-79
2023/08/02 09:33:08;;;;;;;2.42;1.50;;;;;;;;;;5083745;28;20050;-79
2023/08/02 09:35:45;;;;;;;2.95;1.48;;;;;;;;;;5083419;28;20025;-80
2023/08/02 09:38:10;;;;;;;3.97;1.50;;;;;;;;;;5083987;28;20020;-79
2023/08/02 09:40:38;;;;;;;2.55;1.40;;;;;;;;;;5082869;28;20131;-80
2023/08/02 09:43:03;;;;;;;3.25;1.38;;;;;;;;;;5081540;28;20020;-78
2023/08/02 09:45:34;;;;;;;3.35;1.50;;;;;;;;;;5082869;28;20039;-79
2023/08/02 09:48:00;;;;;;;1.73;1.20;;;;;;;;;;5083572;28;20047;-79
2023/08/02 09:50:26;;;;;;;3.08;1.50;;;;;;;;;;5083529;28;20052;-79
2023/08/02 09:52:51;;;;;;;3.05;1.70;;;;;;;;;;5080205;28;20498;-79
2023/08/02 09:55:17;;;;;;;3.10;1.70;;;;;;;;;;5083313;28;20030;-80
2023/08/02 09:57:44;;;;;;;2.13;1.70;;;;;;;;;;5083301;28;20253;-78
2023/08/02 10:00:10;;;;;;;3.45;1.80;;;;;;;;;;5083351;28;20024;-80
2023/08/02 10:02:36;;;;;;;4.07;1.70;;;;;;;;;;5084744;28;20036;-80
2023/08/02 10:05:03;;;;;;;3.92;1.77;;;;;;;;;;5083884;28;20020;-80
2023/08/02 10:07:36;;;;;;;2.85;1.60;;;;;;;;;;5083934;28;20462;-80
2023/08/02 10:10:07;;;;;;;3.13;1.60;;;;;;;;;;5083305;28;20033;-79
2023/08/02 10:12:38;;;;;;;3.25;1.55;;;;;;;;;;5084286;28;20043;-79
2023/08/02 10:15:03;;;;;;;3.80;1.58;;;;;;;;;;5084799;28;20020;-80
2023/08/02 10:17:30;;;;;;;2.30;1.50;;;;;;;;;;5084619;28;20024;-79
2023/08/02 10:19:57;;;;;;;3.00;1.50;;;;;;;;;;5082919;28;20063;-79
2023/08/02 10:22:23;;;;;;;3.70;1.70;;;;;;;;;;5084451;28;20402;-80
2023/08/02 10:24:49;;;;;;;2.33;1.20;;;;;;;;;;5083631;28;20024;-79
2023/08/02 10:27:15;;;;;;;1.88;1.50;;;;;;;;;;5084593;28;20031;-80
2023/08/02 10:29:41;;;;;;;4.32;1.60;;;;;;;;;;5083026;28;20088;-79
2023/08/02 10:32:19;;;;;;;2.53;1.80;;;;;;;;;;5076384;28;20028;-81
2023/08/02 10:34:50;;;;;;;4.47;1.65;;;;;;;;;;5073446;28;20020;-79
2023/08/02 10:37:16;;;;;;;3.45;1.60;;;;;;;;;;5077659;28;20024;-79
2023/08/02 10:39:45;;;;;;;5.63;1.92;;;;;;;;;;5077593;28;20024;-79
2023/08/02 10:42:10;;;;;;;4.28;1.80;;;;;;;;;;5076156;28;20017;-78
2023/08/02 10:44:35;;;;;;;3.33;1.65;;;;;;;;;;5078187;28;20036;-77
2023/08/02 10:47:23;;;;;;;3.67;1.73;;;;;;;;;;5077517;28;20373;-78
2023/08/02 10:49:48;;;;;;;2.97;1.80;;;;;;;;;;5082996;28;20035;-78
2023/08/02 10:52:34;;;;;;;4.43;1.70;;;;;;;;;;5080959;28;20107;-77
2023/08/02 10:55:02;;;;;;;3.72;1.70;;;;;;;;;;5079997;28;20056;-77
2023/08/02 10:57:27;;;;;;;8.32;1.70;;;;;;;;;;5077580;28;20025;-79
2023/08/02 10:59:52;;;;;;;2.72;1.77;;;;;;;;;;5076856;28;20031;-78
2023/08/02 11:02:18;;;;;;;5.78;1.70;;;;;;;;;;5081280;28;20545;-78
2023/08/02 11:04:45;;;;;;;7.32;1.73;;;;;;;;;;5076525;28;20096;-76
2023/08/02 11:07:18;;;;;;;3.50;1.50;;;;;;;;;;5075106;28;20088;-79
2023/08/02 11:09:45;;;;;;;2.65;1.67;;;;;;;;;;5074751;28;20013;-77
2023/08/02 11:12:15;;;;;;;9.13;1.70;;;;;;;;;;5075803;28;20042;-78
2023/08/02 11:14:43;;;;;;;4.28;1.50;;;;;;;;;;5076001;28;20100;-78
2023/08/02 11:17:09;;;;;;;4.57;1.80;;;;;;;;;;5075674;28;20471;-77
2023/08/02 11:19:35;;;;;;;5.18;1.80;;;;;;;;;;5075089;28;20036;-78
2023/08/02 11:22:01;;;;;;;3.10;1.50;;;;;;;;;;5075975;28;20024;-77
2023/08/02 11:24:26;;;;;;;3.55;1.50;;;;;;;;;;5075947;28;20471;-78
2023/08/02 11:26:59;;;;;;;3.03;1.35;;;;;;;;;;5075708;28;20495;-77
2023/08/02 11:29:25;;;;;;;4.20;1.70;;;;;;;;;;5076013;28;20016;-77
2023/08/02 11:31:52;;;;;;;3.50;1.50;;;;;;;;;;5074199;28;20044;-78
2023/08/02 11:34:18;;;;;;;4.57;1.45;;;;;;;;;;5074896;28;20032;-77
2023/08/02 11:36:48;;;;;;;4.97;1.50;;;;;;;;;;5074434;28;20422;-77
2023/08/02 11:39:14;;;;;;;2.97;1.42;;;;;;;;;;5076318;28;20032;-80
2023/08/02 11:41:40;;;;;;;4.38;1.40;;;;;;;;;;5075610;28;20056;-79
2023/08/02 11:44:16;;;;;;;2.33;1.20;;;;;;;;;;5075645;28;20514;-78
2023/08/02 11:46:42;;;;;;;4.10;1.30;;;;;;;;;;5073593;28;20016;-77
2023/08/02 11:49:07;;;;;;;2.80;1.45;;;;;;;;;;5076266;28;20032;-77
2023/08/02 11:51:41;;;;;;;2.33;1.10;;;;;;;;;;5074577;28;20024;-78
2023/08/02 11:54:07;;;;;;;5.28;1.10;;;;;;;;;;5075587;28;20557;-77
2023/08/02 11:56:33;;;;;;;2.83;1.25;;;;;;;;;;5075338;28;20021;-78
2023/08/02 11:58:59;;;;;;;4.43;1.38;;;;;;;;;;5075979;28;20506;-79
2023/08/02 12:01:24;;;;;;;2.75;1.35;;;;;;;;;;5074254;28;20432;-78
2023/08/02 12:03:58;;;;;;;3.28;1.20;;;;;;;;;;5074691;28;20395;-78
2023/08/02 12:06:24;;;;;;;;;;;;;;;;;;5075767;28;20028;-78
2023/08/02 12:08:51;;;;;;;3.35;1.50;;;;;;;;;;5074195;28;19914;-78
2023/08/02 12:11:16;;;;;;;4.22;1.40;;;;;;;;;;5073435;28;20475;-78
2023/08/02 12:13:44;;;;;;;2.80;1.17;;;;;;;;;;5075309;28;20120;-78
2023/08/02 12:16:11;;;;;;;2.65;0.98;;;;;;;;;;5075111;28;20031;-77
2023/08/02 12:18:51;;;;;;;1.77;1.17;;;;;;;;;;5075516;28;20025;-79
2023/08/02 12:21:16;;;;;;;3.47;1.42;;;;;;;;;;5075884;28;20039;-79
2023/08/02 12:23:42;;;;;;;1.85;0.90;;;;;;;;;;5076223;28;20056;-78
2023/08/02 12:26:07;;;;;;;2.15;1.02;;;;;;;;;;5076354;28;20115;-78
2023/08/02 12:28:47;;;;;;;2.92;1.40;;;;;;;;;;5074754;28;20089;-80
2023/08/02 12:31:14;;;;;;;2.80;1.33;;;;;;;;;;5083290;28;20491;-79
2023/08/02 12:33:39;;;;;;;1.83;1.17;;;;;;;;;;5074335;28;20407;-79
2023/08/02 12:36:05;;;;;;;2.58;1.42;;;;;;;;;;5074792;28;20032;-78
2023/08/02 12:38:30;;;;;;;1.75;1.27;;;;;;;;;;5075964;28;20035;-78
2023/08/02 12:41:00;;;;;;;3.38;1.40;;;;;;;;;;5075652;28;20479;-79
2023/08/02 12:43:26;;;;;;;3.03;1.42;;;;;;;;;;5081724;28;20431;-80
2023/08/02 12:45:52;;;;;;;2.28;1.40;;;;;;;;;;5081437;28;20028;-81
2023/08/02 12:48:18;;;;;;;7.90;1.63;;;;;;;;;;5082746;28;20047;-80
2023/08/02 12:50:44;;;;;;;5.60;1.20;;;;;;;;;;5082867;28;20024;-81
2023/08/02 12:53:09;;;;;;;7.07;1.60;;;;;;;;;;5083158;28;20471;-79
2023/08/02 12:55:34;;;;;;;2.25;1.27;;;;;;;;;;5082286;28;20024;-78
2023/08/02 12:58:00;;;;;;;2.88;1.27;;;;;;;;;;5077660;28;20433;-79
2023/08/02 13:00:26;;;;;;;4.17;1.60;;;;;;;;;;5080910;28;20024;-79
2023/08/02 13:02:51;;;;;;;3.70;1.30;;;;;;;;;;5077559;28;20309;-79
2023/08/02 13:05:17;;;;;;;4.85;1.33;;;;;;;;;;5076628;28;20487;-79
2023/08/02 13:07:42;;;;;;;3.05;1.38;;;;;;;;;;5080743;28;20028;-80
2023/08/02 13:10:07;;;;;;;7.17;1.40;;;;;;;;;;5080786;28;20028;-79
2023/08/02 13:12:35;;;;;;;4.15;1.55;;;;;;;;;;5073150;28;20275;-78
2023/08/02 13:15:03;;;;;;;3.35;1.65;;;;;;;;;;5072501;28;20033;-78
2023/08/02 13:17:29;;;;;;;4.15;1.40;;;;;;;;;;5074120;28;20035;-76
2023/08/02 13:19:54;;;;;;;2.97;1.33;;;;;;;;;;5073948;28;20016;-78
2023/08/02 13:22:19;;;;;;;4.55;1.42;;;;;;;;;;5072812;28;20430;-79
2023/08/02 13:24:45;;;;;;;2.65;1.40;;;;;;;;;;5073125;28;20479;-79
2023/08/02 13:27:10;;;;;;;5.25;1.50;;;;;;;;;;5072949;28;20392;-78
2023/08/02 13:29:35;;;;;;;2.65;1.42;;;;;;;;;;5074726;28;20422;-78
2023/08/02 13:32:10;;;;;;;2.78;1.35;;;;;;;;;;5073003;28;20028;-79
2023/08/02 13:34:35;;;;;;;3.50;1.55;;;;;;;;;;5074442;28;20029;-78
2023/08/02 13:37:00;;;;;;;4.37;1.27;;;;;;;;;;5074501;28;20016;-78
2023/08/02 13:39:26;;;;;;;1.75;1.27;;;;;;;;;;5073156;28;20348;-78
2023/08/02 13:41:51;;;;;;;2.05;1.10;;;;;;;;;;5075441;28;20037;-80
2023/08/02 13:44:17;;;;;;;7.47;1.20;;;;;;;;;;5075198;28;20085;-80
2023/08/02 13:46:42;;;;;;;3.55;1.80;;;;;;;;;;5073183;28;20032;-79
2023/08/02 13:49:08;;;;;;;5.85;1.33;;;;;;;;;;5074226;28;20031;-80
2023/08/02 13:51:33;;;;;;;3.47;1.43;;;;;;;;;;5075384;28;20119;-79
2023/08/02 13:53:59;;;;;;;3.47;1.60;;;;;;;;;;5074410;28;20295;-78
2023/08/02 13:56:26;;;;;;;4.10;1.38;;;;;;;;;;5076614;28;20405;-78
2023/08/02 13:58:52;;;;;;;2.50;1.40;;;;;;;;;;5076290;28;20063;-79
2023/08/02 14:01:17;;;;;;;1.83;1.40;;;;;;;;;;5075097;28;20028;-78
2023/08/02 14:03:42;;;;;;;3.13;1.35;;;;;;;;;;5076064;28;20265;-79
2023/08/02 14:06:07;;;;;;;2.40;1.27;;;;;;;;;;5074819;28;20049;-78
2023/08/02 14:08:32;;;;;;;3.43;1.10;;;;;;;;;;5074375;28;20735;-80
2023/08/02 14:10:58;;;;;;;4.77;1.50;;;;;;;;;;5075137;28;20253;-77
2023/08/02 14:13:23;;;;;;;6.70;1.38;;;;;;;;;;5078398;28;20267;-77
2023/08/02 14:15:48;;;;;;;1.60;1.30;;;;;;;;;;5078049;28;20475;-78
2023/08/02 14:18:14;;;;;;;3.05;1.40;;;;;;;;;;5077657;28;20024;-78
2023/08/02 14:20:39;;;;;;;3.13;1.40;;;;;;;;;;5077754;28;20455;-78
2023/08/02 14:23:04;;;;;;;4.33;1.60;;;;;;;;;;5077934;28;20368;-78
2023/08/02 14:25:29;;;;;;;2.97;1.53;;;;;;;;;;5077335;28;20273;-77
2023/08/02 14:27:55;;;;;;;3.20;1.87;;;;;;;;;;5077314;28;20319;-78
2023/08/02 14:30:20;;;;;;;3.53;1.88;;;;;;;;;;5076922;28;20735;-77
2023/08/02 14:32:45;;;;;;;1.40;1.30;;;;;;;;;;5076663;28;20104;-78
2023/08/02 14:35:10;;;;;;;1.95;1.55;;;;;;;;;;5075055;28;20024;-78
2023/08/02 14:37:38;;;;;;;2.60;1.73;;;;;;;;;;5074519;28;20028;-77